Time;durP1;ratioP1;P1;durP2;ratioP2;P2;SDS_P1;SDS_P2;PMS_P1;PMS_P2;Temp;Humidity;BMP_temperature;BMP_pressure;BME280_temperature;BME280_humidity;BME280_pressure;Samples;Min_cycle;Max_cycle;Signal;HPM_P1;HPM_P2
2023/04/20 00:00:22;;;;;;;;;;;13.60;99.90;;;;;;5076180;28;19954;-73
2023/04/20 00:02:49;;;;;;;;;;;13.60;99.90;;;;;;5077306;28;19908;-72
2023/04/20 00:05:14;;;;;;;;;;;13.50;99.90;;;;;;5076568;28;19957;-74
2023/04/20 00:07:40;;;;;;;;;;;13.50;99.90;;;;;;5077169;28;20326;-73
2023/04/20 00:10:06;;;;;;;;;;;13.50;99.90;;;;;;5059114;28;19915;-73
2023/04/20 00:12:32;;;;;;;;;;;13.50;99.90;;;;;;5076999;28;19913;-72
2023/04/20 00:14:58;;;;;;;;;;;13.60;99.90;;;;;;5058631;28;20046;-73
2023/04/20 00:17:23;;;;;;;;;;;13.60;99.90;;;;;;5076788;28;19920;-74
2023/04/20 00:19:49;;;;;;;;;;;13.60;99.90;;;;;;5058879;28;19909;-73
2023/04/20 00:22:15;;;;;;;;;;;13.60;99.90;;;;;;5076815;28;19916;-73
2023/04/20 00:24:40;;;;;;;;;;;13.60;99.90;;;;;;5076511;28;20286;-73
2023/04/20 00:27:06;;;;;;;;;;;13.60;99.90;;;;;;5057219;28;19942;-73
2023/04/20 00:29:31;;;;;;;;;;;13.50;99.90;;;;;;5076788;28;20395;-72
2023/04/20 00:31:57;;;;;;;;;;;13.50;99.90;;;;;;5076577;28;19919;-73
2023/04/20 00:34:22;;;;;;;;;;;13.50;99.90;;;;;;5076285;28;19915;-72
2023/04/20 00:36:48;;;;;;;;;;;13.40;99.90;;;;;;5076509;28;19920;-73
2023/04/20 00:39:14;;;;;;;;;;;13.30;99.90;;;;;;5076405;28;19977;-73
2023/04/20 00:41:40;;;;;;;;;;;13.30;99.90;;;;;;5076205;28;19924;-74
2023/04/20 00:44:12;;;;;;;;;;;13.20;99.90;;;;;;5076269;28;19909;-73
2023/04/20 00:46:38;;;;;;;;;;;13.10;99.90;;;;;;5058123;28;19912;-72
2023/04/20 00:49:04;;;;;;;;;;;13.20;99.90;;;;;;5076510;28;19916;-73
2023/04/20 00:51:30;;;;;;;;;;;13.20;99.90;;;;;;5076109;28;20289;-72
2023/04/20 00:53:56;;;;;;;;;;;13.20;99.90;;;;;;5076271;28;19915;-73
2023/04/20 00:56:22;;;;;;;;;;;13.10;99.90;;;;;;5075646;28;19912;-73
2023/04/20 00:58:47;;;;;;;;;;;13.00;99.90;;;;;;5076037;28;19995;-75
2023/04/20 01:01:16;;;;;;;;;;;13.00;99.90;;;;;;5076183;28;19909;-73
2023/04/20 01:03:42;;;;;;;;;;;13.00;99.90;;;;;;5074952;28;20033;-73
2023/04/20 01:06:08;;;;;;;;;;;12.90;99.90;;;;;;5075614;28;19948;-73
2023/04/20 01:08:33;;;;;;;;;;;12.70;99.90;;;;;;5075942;28;19940;-74
2023/04/20 01:10:59;;;;;;;;;;;12.70;99.90;;;;;;5075915;28;20276;-72
2023/04/20 01:13:25;;;;;;;;;;;12.80;99.90;;;;;;5075905;28;20417;-74
2023/04/20 01:15:50;;;;;;;;;;;12.70;99.90;;;;;;5075292;28;19914;-73
2023/04/20 01:18:18;;;;;;;;;;;12.60;99.90;;;;;;5075888;28;19909;-73
2023/04/20 01:20:46;;;;;;;;;;;12.70;99.90;;;;;;5076010;28;19908;-74
2023/04/20 01:23:11;;;;;;;;;;;12.50;99.90;;;;;;5075823;28;19962;-73
2023/04/20 01:25:37;;;;;;;;;;;12.50;99.90;;;;;;5075247;28;19948;-73
2023/04/20 01:28:03;;;;;;;;;;;12.40;99.90;;;;;;5056508;28;19916;-73
2023/04/20 01:30:29;;;;;;;;;;;12.30;99.90;;;;;;5075656;28;19908;-73
2023/04/20 01:32:55;;;;;;;;;;;12.20;99.90;;;;;;5075534;28;19912;-75
2023/04/20 01:35:20;;;;;;;;;;;12.20;99.90;;;;;;5075117;28;19954;-72
2023/04/20 01:37:46;;;;;;;;;;;12.20;99.90;;;;;;5075393;28;19916;-74
2023/04/20 01:40:12;;;;;;;;;;;12.30;99.90;;;;;;5075031;28;19960;-73
2023/04/20 01:42:38;;;;;;;;;;;12.30;99.90;;;;;;5075349;28;19978;-74
2023/04/20 01:45:04;;;;;;;;;;;12.30;99.90;;;;;;5074981;28;19909;-73
2023/04/20 01:47:30;;;;;;;;;;;12.30;99.90;;;;;;5075217;28;20046;-73
2023/04/20 01:49:56;;;;;;;;;;;12.20;99.90;;;;;;5075179;28;19956;-73
2023/04/20 01:52:21;;;;;;;;;;;12.20;99.90;;;;;;5074964;28;19909;-73
2023/04/20 01:54:47;;;;;;;;;;;12.10;99.90;;;;;;5074727;28;20369;-73
2023/04/20 01:57:13;;;;;;;;;;;12.10;99.90;;;;;;5074925;28;19957;-73
2023/04/20 01:59:38;;;;;;;;;;;12.00;99.90;;;;;;5075015;28;19909;-73
2023/04/20 02:02:04;;;;;;;;;;;12.00;99.90;;;;;;5074920;28;19909;-74
2023/04/20 02:04:29;;;;;;;;;;;11.90;99.90;;;;;;5056527;28;19909;-75
2023/04/20 02:06:55;;;;;;;;;;;11.70;99.90;;;;;;5074793;28;19962;-74
2023/04/20 02:09:21;;;;;;;;;;;11.70;99.90;;;;;;5074924;28;19912;-73
2023/04/20 02:11:46;;;;;;;;;;;11.60;99.90;;;;;;5074782;28;19936;-73
2023/04/20 02:14:12;;;;;;;;;;;11.70;99.90;;;;;;5074674;28;19934;-73
2023/04/20 02:16:37;;;;;;;;;;;11.80;99.90;;;;;;5074084;28;19916;-72
2023/04/20 02:19:03;;;;;;;;;;;11.80;99.90;;;;;;5074537;28;20369;-72
2023/04/20 02:21:29;;;;;;;;;;;11.90;99.90;;;;;;5074680;28;19916;-74
2023/04/20 02:23:54;;;;;;;;;;;11.80;99.90;;;;;;5074480;28;19931;-74
2023/04/20 02:26:20;;;;;;;;;;;11.80;99.90;;;;;;5074033;28;20395;-72
2023/04/20 02:28:45;;;;;;;;;;;11.70;99.90;;;;;;5054874;28;19916;-72
2023/04/20 02:31:11;;;;;;;;;;;11.80;99.90;;;;;;5074272;28;19909;-72
2023/04/20 02:33:36;;;;;;;;;;;11.80;99.90;;;;;;5074409;28;19915;-73
2023/04/20 02:36:02;;;;;;;;;;;11.90;99.90;;;;;;5073687;28;20420;-72
2023/04/20 02:38:28;;;;;;;;;;;11.80;99.90;;;;;;5074295;28;19912;-73
2023/04/20 02:40:53;;;;;;;;;;;11.80;99.90;;;;;;5073963;28;20380;-72
2023/04/20 02:43:19;;;;;;;;;;;11.80;99.90;;;;;;5074132;28;19908;-71
2023/04/20 02:45:45;;;;;;;;;;;11.80;99.90;;;;;;5073726;28;19960;-72
2023/04/20 02:48:10;;;;;;;;;;;11.80;99.90;;;;;;5074048;28;19909;-72
2023/04/20 02:50:37;;;;;;;;;;;11.70;99.90;;;;;;5074120;28;20284;-74
2023/04/20 02:53:03;;;;;;;;;;;11.70;99.90;;;;;;5073941;28;19908;-72
2023/04/20 02:55:28;;;;;;;;;;;11.60;99.90;;;;;;5055630;28;19908;-72
2023/04/20 02:57:54;;;;;;;;;;;11.50;99.90;;;;;;5073880;28;19951;-72
2023/04/20 03:00:20;;;;;;;;;;;11.50;99.90;;;;;;5074149;28;19999;-72
2023/04/20 03:02:46;;;;;;;;;;;11.50;99.90;;;;;;5073764;28;20284;-72
2023/04/20 03:05:12;;;;;;;;;;;11.60;99.90;;;;;;5073612;28;19909;-72
2023/04/20 03:07:37;;;;;;;;;;;11.50;99.90;;;;;;5074027;28;19916;-72
2023/04/20 03:10:03;;;;;;;;;;;11.40;99.90;;;;;;5073661;28;20373;-71
2023/04/20 03:12:30;;;;;;;;;;;11.40;99.90;;;;;;5073673;28;19948;-73
2023/04/20 03:14:56;;;;;;;;;;;11.40;99.90;;;;;;5073393;28;19916;-72
2023/04/20 03:17:21;;;;;;;;;;;11.30;99.90;;;;;;5073494;28;20339;-71
2023/04/20 03:19:47;;;;;;;;;;;11.30;99.90;;;;;;5073604;28;19912;-72
2023/04/20 03:22:13;;;;;;;;;;;11.30;99.90;;;;;;5073473;28;19908;-72
2023/04/20 03:24:38;;;;;;;;;;;11.30;99.90;;;;;;5073377;28;19974;-72
2023/04/20 03:27:04;;;;;;;;;;;11.20;99.90;;;;;;5072811;28;19959;-73
2023/04/20 03:29:29;;;;;;;;;;;11.30;99.90;;;;;;5054565;28;19917;-72
2023/04/20 03:31:55;;;;;;;;;;;11.30;99.90;;;;;;5073440;28;19909;-72
2023/04/20 03:34:20;;;;;;;;;;;11.20;99.90;;;;;;5073385;28;19909;-71
2023/04/20 03:36:46;;;;;;;;;;;11.20;99.90;;;;;;5072802;28;19974;-72
2023/04/20 03:39:11;;;;;;;;;;;11.20;99.90;;;;;;5073184;28;19908;-72
2023/04/20 03:41:37;;;;;;;;;;;11.10;99.90;;;;;;5072987;28;20423;-72
2023/04/20 03:44:03;;;;;;;;;;;11.20;99.90;;;;;;5073284;28;19931;-72
2023/04/20 03:46:28;;;;;;;;;;;11.10;99.90;;;;;;5072604;28;19908;-73
2023/04/20 03:48:54;;;;;;;;;;;11.10;99.90;;;;;;5073236;28;20010;-73
2023/04/20 03:51:19;;;;;;;;;;;11.00;99.90;;;;;;5073231;28;19909;-71
2023/04/20 03:53:45;;;;;;;;;;;10.90;99.90;;;;;;5073234;28;20380;-71
2023/04/20 03:56:11;;;;;;;;;;;10.90;99.90;;;;;;5072620;28;19913;-72
2023/04/20 03:58:36;;;;;;;;;;;10.90;99.90;;;;;;5073093;28;20293;-73
2023/04/20 04:01:03;;;;;;;;;;;10.90;99.90;;;;;;5073264;28;19909;-72
2023/04/20 04:03:28;;;;;;;;;;;10.90;99.90;;;;;;5072933;28;19912;-71
2023/04/20 04:05:54;;;;;;;;;;;10.90;99.90;;;;;;5072818;28;19909;-71
2023/04/20 04:08:20;;;;;;;;;;;10.90;99.90;;;;;;5073019;28;20388;-72
2023/04/20 04:10:45;;;;;;;;;;;10.90;99.90;;;;;;5072981;28;19916;-73
2023/04/20 04:13:11;;;;;;;;;;;10.90;99.90;;;;;;5073023;28;19952;-72
2023/04/20 04:15:37;;;;;;;;;;;10.80;99.90;;;;;;5072436;28;19915;-71
2023/04/20 04:18:02;;;;;;;;;;;10.80;99.90;;;;;;5073167;28;19980;-73
2023/04/20 04:20:28;;;;;;;;;;;10.70;99.90;;;;;;5072896;28;19912;-71
2023/04/20 04:22:53;;;;;;;;;;;10.60;99.90;;;;;;5073052;28;19934;-72
2023/04/20 04:25:22;;;;;;;;;;;10.60;99.90;;;;;;5072836;28;19915;-71
2023/04/20 04:27:47;;;;;;;;;;;10.60;99.90;;;;;;5072742;28;19909;-73
2023/04/20 04:30:13;;;;;;;;;;;10.60;99.90;;;;;;5053884;28;19916;-73
2023/04/20 04:32:38;;;;;;;;;;;10.60;99.90;;;;;;5072820;28;19915;-72
2023/04/20 04:35:04;;;;;;;;;;;10.60;99.90;;;;;;5072503;28;19912;-72
2023/04/20 04:37:30;;;;;;;;;;;10.50;99.90;;;;;;5073336;28;19912;-73
2023/04/20 04:39:57;;;;;;;;;;;10.40;99.90;;;;;;5076205;28;19912;-71
2023/04/20 04:42:23;;;;;;;;;;;10.30;99.90;;;;;;5076341;28;19917;-72
2023/04/20 04:44:51;;;;;;;;;;;10.30;99.90;;;;;;5076476;28;20347;-72
2023/04/20 04:47:18;;;;;;;;;;;10.40;99.90;;;;;;5057904;28;20431;-72
2023/04/20 04:49:44;;;;;;;;;;;10.20;99.90;;;;;;5058456;28;19908;-72
2023/04/20 04:52:10;;;;;;;;;;;10.20;99.90;;;;;;5076245;28;19954;-72
2023/04/20 04:54:35;;;;;;;;;;;10.30;99.90;;;;;;5076191;28;19908;-73
2023/04/20 04:57:01;;;;;;;;;;;10.20;99.90;;;;;;5075562;28;19912;-72
2023/04/20 04:59:27;;;;;;;;;;;10.10;99.90;;;;;;5058163;28;20029;-71
2023/04/20 05:01:52;;;;;;;;;;;10.10;99.90;;;;;;5076148;28;20377;-72
2023/04/20 05:04:18;;;;;;;;;;;10.10;99.90;;;;;;5075735;28;19978;-72
2023/04/20 05:06:43;;;;;;;;;;;10.00;99.90;;;;;;5075512;28;19915;-71
2023/04/20 05:09:09;;;;;;;;;;;10.10;99.90;;;;;;5076017;28;19909;-73
2023/04/20 05:11:35;;;;;;;;;;;10.10;99.90;;;;;;5075900;28;19908;-73
2023/04/20 05:14:02;;;;;;;;;;;10.00;99.90;;;;;;5075911;28;19952;-71
2023/04/20 05:16:28;;;;;;;;;;;10.00;99.90;;;;;;5075324;28;20442;-72
2023/04/20 05:18:53;;;;;;;;;;;10.00;99.90;;;;;;5075793;28;19908;-72
2023/04/20 05:21:19;;;;;;;;;;;10.00;99.90;;;;;;5075686;28;20292;-72
2023/04/20 05:23:44;;;;;;;;;;;10.00;99.90;;;;;;5075783;28;19909;-71
2023/04/20 05:26:10;;;;;;;;;;;10.10;99.90;;;;;;5075231;28;20292;-71
2023/04/20 05:28:36;;;;;;;;;;;10.10;99.90;;;;;;5056061;28;19954;-72
2023/04/20 05:31:01;;;;;;;;;;;10.10;99.90;;;;;;5075563;28;19912;-73
2023/04/20 05:33:27;;;;;;;;;;;10.00;99.90;;;;;;5075469;28;19955;-71
2023/04/20 05:35:56;;;;;;;;;;;10.00;99.90;;;;;;5074674;28;19919;-72
2023/04/20 05:38:21;;;;;;;;;;;10.10;99.90;;;;;;5075573;28;19908;-71
2023/04/20 05:40:47;;;;;;;;;;;10.10;99.90;;;;;;5053688;28;19955;-73
2023/04/20 05:43:12;;;;;;;;;;;10.20;99.90;;;;;;5055420;28;20300;-71
2023/04/20 05:45:38;;;;;;;;;;;10.30;99.90;;;;;;5054944;28;19913;-71
2023/04/20 05:48:04;;;;;;;;;;;10.30;99.90;;;;;;5054928;28;20285;-73
2023/04/20 05:50:30;;;;;;;;;;;10.20;99.90;;;;;;5055251;28;19999;-73
2023/04/20 05:52:55;;;;;;;;;;;10.30;99.90;;;;;;5054878;28;19909;-71
2023/04/20 05:55:21;;;;;;;;;;;10.30;99.90;;;;;;5054962;28;19915;-72
2023/04/20 05:57:46;;;;;;;;;;;10.20;99.90;;;;;;5054850;28;19978;-72
2023/04/20 06:00:14;;;;;;;;;;;10.30;99.90;;;;;;5055083;28;19940;-71
2023/04/20 06:02:40;;;;;;;;;;;10.40;99.90;;;;;;5054971;28;19909;-71
2023/04/20 06:05:06;;;;;;;;;;;10.40;99.90;;;;;;5053670;28;19908;-72
2023/04/20 06:07:31;;;;;;;;;;;10.40;99.90;;;;;;5054379;28;20039;-71
2023/04/20 06:09:59;;;;;;;;;;;10.50;99.90;;;;;;5054766;28;19948;-73
2023/04/20 06:12:25;;;;;;;;;;;10.60;99.90;;;;;;5054854;28;20308;-72
2023/04/20 06:14:50;;;;;;;;;;;10.60;99.90;;;;;;5054644;28;19935;-71
2023/04/20 06:17:16;;;;;;;;;;;10.80;99.90;;;;;;5054157;28;19998;-72
2023/04/20 06:19:42;;;;;;;;;;;10.80;99.90;;;;;;5053456;28;19909;-72
2023/04/20 06:22:08;;;;;;;;;;;10.90;99.90;;;;;;5054606;28;20030;-73
2023/04/20 06:24:34;;;;;;;;;;;11.30;99.90;;;;;;5054655;28;19923;-72
2023/04/20 06:27:00;;;;;;;;;;;12.10;99.90;;;;;;5054044;28;19982;-72
2023/04/20 06:29:26;;;;;;;;;;;12.50;99.90;;;;;;5035879;28;19924;-72
2023/04/20 06:31:52;;;;;;;;;;;13.00;99.90;;;;;;5054440;28;20299;-71
2023/04/20 06:34:18;;;;;;;;;;;13.30;99.90;;;;;;5054390;28;19991;-72
2023/04/20 06:36:43;;;;;;;;;;;13.10;99.90;;;;;;5065127;28;19913;-72
2023/04/20 06:39:10;;;;;;;;;;;13.00;99.90;;;;;;5074154;28;19947;-72
2023/04/20 06:41:36;;;;;;;;;;;12.80;99.90;;;;;;5088577;28;19927;-72
2023/04/20 06:44:02;;;;;;;;;;;12.50;99.90;;;;;;5094364;28;19998;-72
2023/04/20 06:46:28;;;;;;;;;;;12.40;99.90;;;;;;5093992;28;20012;-73
2023/04/20 06:48:53;;;;;;;;;;;12.60;99.90;;;;;;5094279;28;19987;-72
2023/04/20 06:51:19;;;;;;;;;;;12.80;99.90;;;;;;5094266;28;20333;-71
2023/04/20 06:53:44;;;;;;;;;;;12.90;99.90;;;;;;5094242;28;19908;-73
2023/04/20 06:56:11;;;;;;;;;;;13.10;99.90;;;;;;5094130;28;19978;-72
2023/04/20 06:58:36;;;;;;;;;;;13.40;99.90;;;;;;5094795;28;19908;-73
2023/04/20 07:01:02;;;;;;;;;;;13.60;99.90;;;;;;5094054;28;19908;-72
2023/04/20 07:03:27;;;;;;;;;;;13.80;99.90;;;;;;5094381;28;19944;-72
2023/04/20 07:05:53;;;;;;;;;;;14.00;99.90;;;;;;5094327;28;20314;-73
2023/04/20 07:08:19;;;;;;;;;;;14.20;99.90;;;;;;5094483;28;19915;-71
2023/04/20 07:10:44;;;;;;;;;;;14.30;99.90;;;;;;5094457;28;20444;-72
2023/04/20 07:13:10;;;;;;;;;;;14.20;99.90;;;;;;5094453;28;19935;-73
2023/04/20 07:15:35;;;;;;;;;;;14.20;99.90;;;;;;5094024;28;19915;-73
2023/04/20 07:18:01;;;;;;;;;;;14.20;99.90;;;;;;5094513;28;19908;-71
2023/04/20 07:20:27;;;;;;;;;;;14.70;99.90;;;;;;5094516;28;19908;-73
2023/04/20 07:22:52;;;;;;;;;;;15.00;99.90;;;;;;5076072;28;19908;-73
2023/04/20 07:25:18;;;;;;;;;;;15.00;99.90;;;;;;5094300;28;20339;-72
2023/04/20 07:27:44;;;;;;;;;;;15.20;99.90;;;;;;5093665;28;19915;-71
2023/04/20 07:30:10;;;;;;;;;;;15.70;99.90;;;;;;5074523;28;19923;-71
2023/04/20 07:32:36;;;;;;;;;;;16.00;99.90;;;;;;5094033;28;19908;-71
2023/04/20 07:35:02;;;;;;;;;;;16.30;99.90;;;;;;5094209;28;19915;-72
2023/04/20 07:37:28;;;;;;;;;;;16.70;99.90;;;;;;5093588;28;19946;-73
2023/04/20 07:39:54;;;;;;;;;;;17.30;99.90;;;;;;5093755;28;19909;-71
2023/04/20 07:42:20;;;;;;;;;;;17.90;99.90;;;;;;5094018;28;19965;-73
2023/04/20 07:44:46;;;;;;;;;;;18.60;99.90;;;;;;5093925;28;19908;-72
2023/04/20 07:47:11;;;;;;;;;;;19.40;99.90;;;;;;5075192;28;20322;-72
2023/04/20 07:49:39;;;;;;;;;;;19.80;99.90;;;;;;5094034;28;19962;-73
2023/04/20 07:52:05;;;;;;;;;;;20.50;99.90;;;;;;5093855;28;19908;-72
2023/04/20 07:54:31;;;;;;;;;;;21.40;99.90;;;;;;5093999;28;19908;-73
2023/04/20 07:56:57;;;;;;;;;;;22.10;99.90;;;;;;5093529;28;19919;-72
2023/04/20 07:59:22;;;;;;;;;;;22.70;99.90;;;;;;5075745;28;19909;-72
2023/04/20 08:01:49;;;;;;;;;;;23.60;99.90;;;;;;5094126;28;20382;-72
2023/04/20 08:04:15;;;;;;;;;;;24.40;99.90;;;;;;5093606;28;19908;-72
2023/04/20 08:06:41;;;;;;;;;;;24.40;99.90;;;;;;5093656;28;20364;-71
2023/04/20 08:09:07;;;;;;;;;;;24.80;99.90;;;;;;5093742;28;19915;-71
2023/04/20 08:11:33;;;;;;;;;;;25.60;99.90;;;;;;5076652;28;19912;-73
2023/04/20 08:13:58;;;;;;;;;;;26.40;99.90;;;;;;5097606;28;19958;-73
2023/04/20 08:16:24;;;;;;;;;;;26.60;99.90;;;;;;5097433;28;20420;-72
2023/04/20 08:18:50;;;;;;;;;;;26.30;99.90;;;;;;5097596;28;19908;-73
2023/04/20 08:21:15;;;;;;;;;;;26.60;99.90;;;;;;5097657;28;19915;-73
2023/04/20 08:23:41;;;;;;;;;;;26.80;99.90;;;;;;5097497;28;19908;-73
2023/04/20 08:26:07;;;;;;;;;;;27.10;99.90;;;;;;5097341;28;19951;-74
2023/04/20 08:28:32;;;;;;;;;;;27.80;99.90;;;;;;5097373;28;19908;-73
2023/04/20 08:30:58;;;;;;;;;;;27.80;99.90;;;;;;5078283;28;19970;-73
2023/04/20 08:33:24;;;;;;;;;;;28.30;99.90;;;;;;5079492;28;19915;-74
2023/04/20 08:35:50;;;;;;;;;;;28.80;99.90;;;;;;5097503;28;19947;-75
2023/04/20 08:38:16;;;;;;;;;;;29.00;99.90;;;;;;5097470;28;19908;-73
2023/04/20 08:40:42;;;;;;;;;;;28.90;99.90;;;;;;5078807;28;19927;-72
2023/04/20 08:43:07;;;;;;;;;;;28.50;99.90;;;;;;5079081;28;19961;-72
2023/04/20 08:45:33;;;;;;;;;;;28.80;99.90;;;;;;5097286;28;19998;-74
2023/04/20 08:47:59;;;;;;;;;;;28.90;99.90;;;;;;5096636;28;19926;-73
2023/04/20 08:50:27;;;;;;;;;;;29.40;99.90;;;;;;5096574;28;20131;-73
2023/04/20 08:52:53;;;;;;;;;;;29.80;99.90;;;;;;5096902;28;19908;-74
2023/04/20 08:55:19;;;;;;;;;;;30.40;99.90;;;;;;5097082;28;19912;-73
2023/04/20 08:57:46;;;;;;;;;;;30.80;99.90;;;;;;5096593;28;20393;-74
2023/04/20 09:00:12;;;;;;;;;;;31.50;99.90;;;;;;5096971;28;19969;-73
2023/04/20 09:02:48;;;;;;;;;;;31.80;99.90;;;;;;5096768;28;19908;-75
2023/04/20 09:05:13;;;;;;;;;;;32.30;99.90;;;;;;5096533;28;19908;-73
2023/04/20 09:07:39;;;;;;;;;;;31.80;99.90;;;;;;5096609;28;19961;-74
2023/04/20 09:10:04;;;;;;;;;;;30.80;99.90;;;;;;5096814;28;19908;-74
2023/04/20 09:12:39;;;;;;;;;;;31.30;99.90;;;;;;5096930;28;20333;-74
2023/04/20 09:15:05;;;;;;;;;;;30.90;99.90;;;;;;5096853;28;19914;-72
2023/04/20 09:17:32;;;;;;;;;;;31.50;99.90;;;;;;5096254;28;19912;-73
2023/04/20 09:19:58;;;;;;;;;;;31.90;99.90;;;;;;5096701;28;19915;-73
2023/04/20 09:22:30;;;;;;;;;;;31.20;99.90;;;;;;5096744;28;19908;-73
2023/04/20 09:24:56;;;;;;;;;;;30.90;99.90;;;;;;5095711;28;19943;-73
2023/04/20 09:27:22;;;;;;;;;;;31.00;99.90;;;;;;5096218;28;20429;-73
2023/04/20 09:29:57;;;;;;;;;;;30.60;99.90;;;;;;5096603;28;19914;-73
2023/04/20 09:32:24;;;;;;;;;;;31.50;99.90;;;;;;5077098;28;19923;-74
2023/04/20 09:34:49;;;;;;;;;;;32.00;99.90;;;;;;5096396;28;19908;-74
2023/04/20 09:37:15;;;;;;;;;;;32.50;99.90;;;;;;5095652;28;19912;-75
2023/04/20 09:39:42;;;;;;;;;;;31.90;99.90;;;;;;5095883;28;20375;-74
2023/04/20 09:42:10;;;;;;;;;;;31.80;99.90;;;;;;5095859;28;19920;-73
2023/04/20 09:44:37;;;;;;;;;;;32.80;99.90;;;;;;5096095;28;19912;-74
2023/04/20 09:47:02;;;;;;;;;;;35.50;99.90;;;;;;5095645;28;20276;-74
2023/04/20 09:49:28;;;;;;;;;;;36.20;99.90;;;;;;5096006;28;19912;-73
2023/04/20 09:51:55;;;;;;;;;;;36.90;99.90;;;;;;5077816;28;19908;-75
2023/04/20 09:54:21;;;;;;;;;;;36.10;99.90;;;;;;5096200;28;19916;-74
2023/04/20 09:56:47;;;;;;;;;;;35.80;99.90;;;;;;5095475;28;19953;-74
2023/04/20 09:59:14;;;;;;;;;;;35.30;99.90;;;;;;5095665;28;19915;-75
2023/04/20 10:01:40;;;;;;;;;;;37.60;99.90;;;;;;5096084;28;19909;-74
2023/04/20 10:04:07;;;;;;;;;;;38.60;99.90;;;;;;5077510;28;20273;-74
2023/04/20 10:06:33;;;;;;;;;;;40.90;99.90;;;;;;5095530;28;19912;-73
2023/04/20 10:09:03;;;;;;;;;;;41.10;99.80;;;;;;5095842;28;19918;-74
2023/04/20 10:11:30;;;;;;;;;;;41.40;99.60;;;;;;5095638;28;19911;-75
2023/04/20 10:13:57;;;;;;;;;;;41.10;99.20;;;;;;5095734;28;20327;-74
2023/04/20 10:16:23;;;;;;;;;;;42.20;99.00;;;;;;5093547;28;19914;-75
2023/04/20 10:18:56;;;;;;;;;;;41.20;98.80;;;;;;5057142;28;19918;-75
2023/04/20 10:21:22;;;;;;;;;;;40.20;99.20;;;;;;5075366;28;19947;-76
2023/04/20 10:23:48;;;;;;;;;;;38.70;99.90;;;;;;5075200;28;19908;-75
2023/04/20 10:26:15;;;;;;;;;;;41.20;99.20;;;;;;5057235;28;19978;-75
2023/04/20 10:28:43;;;;;;;;;;;42.30;98.70;;;;;;5074919;28;19908;-75
2023/04/20 10:31:12;;;;;;;;;;;41.40;98.20;;;;;;5055672;28;19918;-74
2023/04/20 10:33:51;;;;;;;;;;;40.80;98.80;;;;;;5074870;28;19912;-75
2023/04/20 10:36:24;;;;;;;;;;;40.60;99.00;;;;;;5055855;28;19916;-75
2023/04/20 10:38:50;;;;;;;;;;;40.50;99.30;;;;;;5074613;28;19908;-74
2023/04/20 10:41:16;;;;;;;;;;;39.40;99.60;;;;;;5074788;28;20023;-76
2023/04/20 10:43:42;;;;;;;;;;;41.30;99.20;;;;;;5074902;28;20389;-75
2023/04/20 10:46:18;;;;;;;;;;;42.40;98.20;;;;;;5056645;28;20277;-75
2023/04/20 10:48:50;;;;;;;;;;;39.80;99.10;;;;;;5074581;28;19915;-75
2023/04/20 10:51:16;;;;;;;;;;;38.60;99.70;;;;;;5074594;28;20358;-76
2023/04/20 10:53:42;;;;;;;;;;;38.60;99.90;;;;;;5074520;28;19909;-75
2023/04/20 10:56:07;;;;;;;;;;;39.00;99.90;;;;;;5074524;28;20388;-74
2023/04/20 10:58:33;;;;;;;;;;;37.80;99.90;;;;;;5092899;28;19912;-74
2023/04/20 11:01:02;;;;;;;;;;;37.20;99.90;;;;;;5094760;28;19912;-72
2023/04/20 11:03:29;;;;;;;;;;;37.00;99.90;;;;;;5094504;28;19923;-71
2023/04/20 11:05:56;;;;;;;;;;;35.90;99.90;;;;;;5094741;28;19915;-71
2023/04/20 11:08:21;;;;;;;;;;;36.50;99.90;;;;;;5094110;28;19908;-72
2023/04/20 11:10:47;;;;;;;;;;;36.30;99.90;;;;;;5094524;28;19958;-72
2023/04/20 11:13:21;;;;;;;;;;;35.80;99.90;;;;;;5094541;28;19909;-73
2023/04/20 11:15:46;;;;;;;;;;;36.30;99.90;;;;;;5094274;28;20016;-73
2023/04/20 11:18:12;;;;;;;;;;;35.80;99.90;;;;;;5093602;28;20629;-72
2023/04/20 11:20:58;;;;;;;;;;;36.40;99.90;;;;;;5093863;28;20296;-72
2023/04/20 11:23:26;;;;;;;;;;;36.70;99.90;;;;;;5093283;28;20402;-72
2023/04/20 11:25:52;;;;;;;;;;;38.00;99.90;;;;;;5094309;28;20023;-72
2023/04/20 11:28:18;;;;;;;;;;;36.90;99.90;;;;;;5075774;28;19908;-72
2023/04/20 11:30:43;;;;;;;;;;;36.60;99.90;;;;;;5093772;28;19953;-73
2023/04/20 11:33:09;;;;;;;;;;;36.00;99.90;;;;;;5074307;28;19923;-73
2023/04/20 11:35:40;;;;;;;;;;;37.10;99.90;;;;;;5075678;28;19965;-72
2023/04/20 11:38:06;;;;;;;;;;;36.00;99.90;;;;;;5093797;28;19909;-72
2023/04/20 11:40:31;;;;;;;;;;;36.80;99.90;;;;;;5093842;28;19965;-72
2023/04/20 11:42:58;;;;;;;;;;;37.60;99.90;;;;;;5094296;28;20241;-73
2023/04/20 11:45:24;;;;;;;;;;;36.60;99.90;;;;;;5094287;28;19915;-72
2023/04/20 11:47:51;;;;;;;;;;;37.40;99.90;;;;;;5093278;28;19912;-71
2023/04/20 11:50:17;;;;;;;;;;;34.50;99.90;;;;;;5094003;28;19915;-71
2023/04/20 11:52:42;;;;;;;;;;;36.00;99.90;;;;;;5093667;28;19908;-71
2023/04/20 11:55:09;;;;;;;;;;;38.50;99.90;;;;;;5094059;28;19912;-72
2023/04/20 11:57:35;;;;;;;;;;;38.30;99.90;;;;;;5093808;28;19908;-73
2023/04/20 12:00:00;;;;;;;;;;;38.40;99.90;;;;;;5093897;28;20378;-72
2023/04/20 12:02:26;;;;;;;;;;;38.30;99.90;;;;;;5093835;28;19912;-73
2023/04/20 12:04:51;;;;;;;;;;;38.30;99.90;;;;;;5093501;28;19915;-72
2023/04/20 12:07:17;;;;;;;;;;;38.40;99.90;;;;;;5093626;28;20360;-72
2023/04/20 12:09:43;;;;;;;;;;;39.50;99.90;;;;;;5093754;28;20013;-73
2023/04/20 12:12:08;;;;;;;;;;;38.70;99.90;;;;;;5093628;28;19954;-72
2023/04/20 12:14:34;;;;;;;;;;;38.90;99.80;;;;;;5093734;28;19908;-73
2023/04/20 12:17:00;;;;;;;;;;;40.10;99.40;;;;;;5093502;28;19908;-72
2023/04/20 12:19:26;;;;;;;;;;;39.80;99.50;;;;;;5093911;28;19912;-72
2023/04/20 12:21:52;;;;;;;;;;;38.20;99.90;;;;;;5093789;28;20428;-72
2023/04/20 12:24:17;;;;;;;;;;;41.40;99.00;;;;;;5093555;28;19995;-73
2023/04/20 12:26:43;;;;;;;;;;;41.90;98.80;;;;;;5093460;28;19918;-71
2023/04/20 12:29:09;;;;;;;;;;;42.80;98.30;;;;;;5093696;28;20299;-73
2023/04/20 12:31:35;;;;;;;;;;;41.20;98.30;;;;;;5093743;28;19915;-73
2023/04/20 12:34:01;;;;;;;;;;;40.80;99.10;;;;;;5074045;28;19916;-73
2023/04/20 12:36:26;;;;;;;;;;;40.70;98.60;;;;;;5093861;28;19912;-72
2023/04/20 12:38:54;;;;;;;;;;;41.70;98.20;;;;;;5093150;28;19908;-73
2023/04/20 12:41:21;;;;;;;;;;;41.50;98.10;;;;;;5093414;28;20325;-72
2023/04/20 12:43:50;;;;;;;;;;;41.30;98.60;;;;;;5075613;28;19908;-73
2023/04/20 12:46:16;;;;;;;;;;;42.00;98.00;;;;;;5093645;28;19948;-74
2023/04/20 12:48:42;;;;;;;;;;;43.10;97.70;;;;;;5092905;28;19975;-72
2023/04/20 12:51:07;;;;;;;;;;;42.30;97.90;;;;;;5093570;28;19931;-71
2023/04/20 12:53:33;;;;;;;;;;;40.50;98.30;;;;;;5075338;28;20356;-73
2023/04/20 12:55:59;;;;;;;;;;;41.40;98.70;;;;;;5093545;28;19915;-74
2023/04/20 12:58:24;;;;;;;;;;;41.50;98.70;;;;;;5093601;28;19958;-71
2023/04/20 13:00:50;;;;;;;;;;;41.40;98.70;;;;;;5096850;28;20267;-72
2023/04/20 13:03:16;;;;;;;;;;;41.50;98.50;;;;;;5096907;28;19915;-72
2023/04/20 13:05:43;;;;;;;;;;;42.00;98.30;;;;;;5096901;28;19908;-72
2023/04/20 13:08:09;;;;;;;;;;;40.50;98.60;;;;;;5096280;28;19920;-72
2023/04/20 13:10:35;;;;;;;;;;;40.60;98.90;;;;;;5096727;28;20288;-72
2023/04/20 13:13:01;;;;;;;;;;;40.00;99.10;;;;;;5096993;28;19944;-73
2023/04/20 13:15:26;;;;;;;;;;;39.60;99.20;;;;;;5096948;28;19916;-73
2023/04/20 13:17:52;;;;;;;;;;;39.30;98.70;;;;;;5096426;28;19969;-73
2023/04/20 13:20:17;;;;;;;;;;;39.30;99.00;;;;;;5096702;28;19931;-71
2023/04/20 13:22:43;;;;;;;;;;;39.80;99.20;;;;;;5078517;28;19908;-72
2023/04/20 13:25:09;;;;;;;;;;;40.30;99.10;;;;;;5078470;28;19913;-73
2023/04/20 13:27:35;;;;;;;;;;;40.10;99.00;;;;;;5096165;28;19958;-75
2023/04/20 13:30:00;;;;;;;;;;;39.10;99.30;;;;;;5096269;28;19996;-76
2023/04/20 13:32:26;;;;;;;;;;;38.90;99.50;;;;;;5096500;28;19912;-74
2023/04/20 13:34:51;;;;;;;;;;;38.70;99.80;;;;;;5077552;28;19916;-75
2023/04/20 13:37:17;;;;;;;;;;;38.30;99.90;;;;;;5095857;28;19922;-75
2023/04/20 13:39:43;;;;;;;;;;;40.80;99.10;;;;;;5096173;28;19949;-75
2023/04/20 13:42:08;;;;;;;;;;;40.80;98.60;;;;;;5077727;28;19997;-74
2023/04/20 13:44:34;;;;;;;;;;;41.20;98.60;;;;;;5096381;28;19914;-74
2023/04/20 13:47:00;;;;;;;;;;;40.40;98.90;;;;;;5095993;28;19913;-74
2023/04/20 13:49:26;;;;;;;;;;;38.50;99.90;;;;;;5095938;28;19912;-74
2023/04/20 13:51:51;;;;;;;;;;;38.60;99.90;;;;;;5096157;28;20337;-74
2023/04/20 13:54:17;;;;;;;;;;;39.40;99.90;;;;;;5095779;28;19908;-75
2023/04/20 13:56:42;;;;;;;;;;;38.60;99.90;;;;;;5095894;28;19908;-73
2023/04/20 13:59:08;;;;;;;;;;;36.30;99.90;;;;;;5095433;28;19919;-74
2023/04/20 14:01:34;;;;;;;;;;;36.40;99.90;;;;;;5096106;28;20002;-74
2023/04/20 14:03:59;;;;;;;;;;;36.80;99.90;;;;;;5095683;28;20375;-74
2023/04/20 14:06:26;;;;;;;;;;;36.50;99.90;;;;;;5095691;28;19980;-73
2023/04/20 14:08:52;;;;;;;;;;;35.40;99.90;;;;;;5095069;28;19995;-73